Flight Track Log - Related Links

Times and Time Zones

All times are in EDT time to prevent confusion due to time zone crossing. See the N528QS flight status page for this flight to view local times or setup timezone preferences in your user account.

Time Position Orientation Groundspeed Altitude Reporting Facility
EDT Latitude Longitude Course Direction KTS MPH feet Rate Location/Type
Fri 10:09:27 AM 38.4956 -122.8039 164° South 184 212 1,500  Level Oakland Center
Fri 10:10:28 AM 38.4378 -122.7822 164° South 242 278 4,600 3,885 Climbing Oakland Center
Fri 10:11:29 AM 38.3633 -122.7564 165° South 272 313 9,400 3,738 Climbing Oakland Center
Fri 10:12:30 AM 38.2847 -122.7153 158° South 308 354 12,200 3,049 Climbing Oakland Center
Fri 10:13:31 AM 38.1892 -122.6106 139° Southeast 371 427 15,600 3,197 Climbing Oakland Center
Fri 10:14:32 AM 38.1025 -122.5150 139° Southeast 397 457 18,700 2,829 Climbing Oakland Center
Fri 10:15:34 AM 38.0078 -122.4139 140° Southeast 433 498 21,400 1,854 Climbing Oakland Center
Fri 10:16:35 AM 37.9153 -122.3122 139° Southeast 433 498 22,500 1,820 Climbing Oakland Center
Fri 10:17:36 AM 37.8225 -122.2153 140° Southeast 430 495 25,100 2,311 Climbing Oakland Center
Fri 10:18:37 AM 37.7247 -122.1119 140° Southeast 455 524 27,200 2,213 Climbing Oakland Center
Fri 10:19:38 AM 37.6233 -122.0033 140° Southeast 473 544 29,600 2,607 Climbing Oakland Center
Fri 10:20:39 AM 37.5231 -121.8969 140° Southeast 471 542 32,500 3,049 Climbing Oakland Center
Fri 10:21:40 AM 37.4242 -121.7936 140° Southeast 465 535 35,800 2,927 Climbing Oakland Center
Fri 10:22:42 AM 37.3350 -121.6972 139° Southeast 446 513 38,500 2,244 Climbing Oakland Center
Fri 10:23:43 AM 37.2406 -121.5994 140° Southeast 442 509 40,400 1,230 Climbing Oakland Center
Fri 10:24:44 AM 37.1447 -121.4994 140° Southeast 448 516 41,000 295 Climbing Oakland Center
Fri 10:25:45 AM 37.0392 -121.3869 140° Southeast 471 542 41,000  Level Oakland Center
Fri 10:26:46 AM 36.9383 -121.2836 141° Southeast 470 541 41,000  Level Oakland Center
Fri 10:27:48 AM 36.8386 -121.1817 141° Southeast 465 535 41,000  Level Oakland Center
Fri 10:28:49 AM 36.7317 -121.0711 140° Southeast 463 533 41,000  Level Oakland Center
Fri 10:29:50 AM 36.6308 -120.9681 141° Southeast 466 536 41,000  Level Oakland Center
Fri 10:30:51 AM 36.5297 -120.8664 141° Southeast 466 536 41,000  Level Oakland Center
Fri 10:31:53 AM 36.4106 -120.7417 140° Southeast 465 535 41,000  Level Oakland Center
Fri 10:32:54 AM 36.3097 -120.6400 141° Southeast 467 537 41,000  Level Oakland Center
Fri 10:33:55 AM 36.2081 -120.5394 141° Southeast 467 537 41,000  Level Oakland Center
Fri 10:34:57 AM 36.1075 -120.4375 141° Southeast 464 534 41,000  Level Oakland Center
Fri 10:35:58 AM 36.0061 -120.3356 141° Southeast 467 537 41,000  Level Oakland Center
Fri 10:38:06 AM 35.8022 -120.1328 141° Southeast 468 539 41,000  Level Los Angeles Center
Fri 10:39:08 AM 35.6808 -120.0108 141° Southeast 466 536 41,000  Level Los Angeles Center
Fri 10:40:03 AM 35.5958 -119.9322 143° Southeast 469 540 41,000  Level Oakland Center
Fri 10:41:04 AM 35.4869 -119.8392 145° Southeast 470 541 41,000  Level Oakland Center
Fri 10:42:06 AM 35.3800 -119.7467 145° Southeast 468 539 41,000  Level Oakland Center
Fri 10:43:07 AM 35.2725 -119.6556 145° Southeast 467 537 41,000  Level Oakland Center
Fri 10:44:08 AM 35.1436 -119.5467 145° Southeast 467 537 41,000  Level Oakland Center
Fri 10:45:19 AM 35.0392 -119.4547 144° Southeast 467 537 41,000 -857 Level Los Angeles Center
Fri 10:46:21 AM 34.9103 -119.3475 146° Southeast 467 537 39,100 -1,790 Descending Los Angeles Center
Fri 10:47:23 AM 34.8086 -119.2597 145° Southeast 455 524 37,300 -1,742 Descending Los Angeles Center
Fri 10:48:25 AM 34.7000 -119.1694 146° Southeast 464 534 35,500 -1,790 Descending Los Angeles Center
Fri 10:49:27 AM 34.5875 -119.0767 146° Southeast 476 548 33,600 -1,839 Descending Los Angeles Center
Fri 10:50:29 AM 34.4761 -118.9831 145° Southeast 485 558 31,700 -1,887 Descending Los Angeles Center
Fri 10:51:31 AM 34.3647 -118.8883 145° Southeast 490 564 29,700 -1,839 Descending Los Angeles Center
Fri 10:52:33 AM 34.2617 -118.7822 140° Southeast 485 558 27,900 -1,790 Descending Los Angeles Center
Fri 10:53:35 AM 34.1631 -118.6769 139° Southeast 475 547 26,000 -2,081 Descending Los Angeles Center
Fri 10:54:37 AM 34.0436 -118.5492 138° Southeast 477 549 23,600 -2,032 Descending Los Angeles Center
Fri 10:55:39 AM 33.9383 -118.4678 147° Southeast 460 529 21,800 -1,694 Descending Los Angeles Center
Fri 10:56:41 AM 33.8153 -118.4728 182° South 437 503 20,100 -1,500 Descending Los Angeles Center
Fri 10:57:43 AM 33.6986 -118.5136 196° South 441 507 18,700 -1,403 Descending Los Angeles Center
Fri 10:58:45 AM 33.5692 -118.5500 193° South 394 453 17,200 -1,500 Descending Los Angeles Center
Fri 10:59:47 AM 33.4808 -118.5114 160° South 346 398 15,600 -1,500 Descending Los Angeles Center
Fri 11:00:49 AM 33.4072 -118.4481 144° Southeast 332 382 14,100 -1,597 Descending Los Angeles Center
Fri 11:01:51 AM 33.3647 -118.3450 116° Southeast 348 400 12,300 -1,597 Descending Los Angeles Center
Fri 11:02:53 AM 33.3589 -118.2361 94° East 346 398 10,800 -1,403 Descending Los Angeles Center
Fri 11:03:55 AM 33.3450 -118.1133 98° East 318 366 9,400 -1,161 Descending Los Angeles Center
Fri 11:04:57 AM 33.3311 -118.0178 100° East 297 342 8,400 -1,113 Descending Los Angeles Center
Fri 11:05:59 AM 33.3167 -117.9208 100° East 298 343 7,100 -1,452 Descending Los Angeles Center
Fri 11:07:01 AM 33.3025 -117.8264 100° East 293 337 5,400 -1,016 Descending Los Angeles Center
Fri 11:08:03 AM 33.2886 -117.7325 100° East 290 334 5,000 -194 Descending Los Angeles Center
Fri 11:09:05 AM 33.2714 -117.6214 100° East 287 330 5,000 -297 Level Los Angeles Center
Fri 11:09:44 AM 33.2667 -117.5500 95° East 287 330 4,500 -612 Descending Southern California TRACON
Fri 11:10:43 AM 33.2500 -117.4667 103° East 283 326 4,000 -263 Descending Southern California TRACON
Fri 11:11:38 AM 33.2333 -117.3833 103° East 279 321 4,000  Level Southern California TRACON
Fri 11:12:38 AM 33.2333 -117.3000 90° East 260 299 4,000  Level Southern California TRACON
Fri 11:13:38 AM 33.2333 -117.2167 90° East 212 244 4,000  Level Southern California TRACON
Fri 11:14:38 AM 33.2167 -117.1500 107° East 207 238 4,000 -100 Level Southern California TRACON
Fri 11:15:38 AM 33.2167 -117.1000 90° East 194 223 3,800 -400 Descending Southern California TRACON
Fri 11:16:38 AM 33.1667 -117.1000 180° South 178 205 3,200 -650 Descending Southern California TRACON
Fri 11:17:38 AM 33.1500 -117.1500 248° West 171 197 2,500 -750 Descending Southern California TRACON
Fri 11:18:38 AM 33.1500 -117.2000 270° West 135 155 1,700 -750 Descending Southern California TRACON
Fri 11:19:38 AM 33.1333 -117.2333 239° Southwest 124 143 1,000 -737 Descending Southern California TRACON
Fri 11:20:32 AM 33.1333 -117.2667 270° West 123 142 300 -778 Descending Southern California TRACON

Login

Don't have an account? Register now (free) for customized features, flight alerts, and more!